Time,TemperatureF,DewpointF,PressureIn,WindDirection,WindDirectionDegrees,WindSpeedMPH,WindSpeedGustMPH,Humidity,HourlyPrecipIn,Conditions,Clouds,dailyrainin,SoftwareType,DateUTC
2013-03-18 00:03:00,7.0,1.0,30.30,North,355,0.0,1.0,75,0.00,,,0.00,,2013-03-18 04:03:00,
2013-03-18 00:13:00,7.0,1.0,30.30,North,355,0.0,1.0,75,0.00,,,0.00,,2013-03-18 04:13:00,
2013-03-18 00:23:00,6.0,0.0,30.31,North,355,0.0,0.0,76,0.00,,,0.00,,2013-03-18 04:23:00,
2013-03-18 00:33:00,6.0,0.0,30.32,North,355,0.0,0.0,77,0.00,,,0.00,,2013-03-18 04:33:00,
2013-03-18 00:42:00,6.0,0.0,30.32,North,355,0.0,0.0,77,0.00,,,0.00,,2013-03-18 04:42:00,
2013-03-18 00:52:00,6.0,1.0,30.32,North,355,0.0,0.0,78,0.00,,,0.00,,2013-03-18 04:52:00,
2013-03-18 01:03:00,5.0,0.0,30.32,North,355,0.0,1.0,78,0.00,,,0.00,,2013-03-18 05:03:00,
2013-03-18 01:12:00,5.0,0.0,30.32,North,355,0.0,1.0,78,0.00,,,0.00,,2013-03-18 05:12:00,
2013-03-18 01:22:00,5.0,0.0,30.32,North,355,0.0,0.0,79,0.00,,,0.00,,2013-03-18 05:22:00,
2013-03-18 01:32:00,5.0,0.0,30.32,North,355,0.0,1.0,79,0.00,,,0.00,,2013-03-18 05:32:00,
2013-03-18 01:43:00,5.0,0.0,30.32,North,355,0.0,1.0,79,0.00,,,0.00,,2013-03-18 05:43:00,
2013-03-18 01:52:00,4.0,-1.0,30.33,North,355,0.0,0.0,80,0.00,,,0.00,,2013-03-18 05:52:00,
2013-03-18 02:02:00,4.0,-1.0,30.34,North,355,0.0,0.0,81,0.00,,,0.00,,2013-03-18 06:02:00,
2013-03-18 02:12:00,4.0,-1.0,30.34,North,355,0.0,0.0,81,0.00,,,0.00,,2013-03-18 06:12:00,
2013-03-18 02:22:00,4.0,-1.0,30.34,North,355,0.0,1.0,81,0.00,,,0.00,,2013-03-18 06:22:00,
2013-03-18 02:32:00,4.0,-1.0,30.34,North,355,0.0,1.0,81,0.00,,,0.00,,2013-03-18 06:32:00,
2013-03-18 02:42:00,4.0,-1.0,30.34,North,355,0.0,1.0,81,0.00,,,0.00,,2013-03-18 06:42:00,
2013-03-18 02:53:00,3.0,-1.0,30.34,North,355,0.0,0.0,82,0.00,,,0.00,,2013-03-18 06:53:00,
2013-03-18 03:02:00,3.0,-1.0,30.34,North,355,0.0,0.0,82,0.00,,,0.00,,2013-03-18 07:02:00,
2013-03-18 03:12:00,3.0,-1.0,30.34,North,355,0.0,0.0,82,0.00,,,0.00,,2013-03-18 07:12:00,
2013-03-18 03:22:00,3.0,-1.0,30.33,North,355,0.0,0.0,82,0.00,,,0.00,,2013-03-18 07:22:00,
2013-03-18 03:33:00,3.0,-1.0,30.34,North,355,0.0,0.0,82,0.00,,,0.00,,2013-03-18 07:33:00,
2013-03-18 03:42:00,3.0,-1.0,30.34,North,355,0.0,0.0,82,0.00,,,0.00,,2013-03-18 07:42:00,
2013-03-18 03:52:00,2.0,-2.0,30.33,North,355,0.0,0.0,83,0.00,,,0.00,,2013-03-18 07:52:00,
2013-03-18 04:02:00,2.0,-2.0,30.34,North,355,0.0,1.0,83,0.00,,,0.00,,2013-03-18 08:02:00,
2013-03-18 04:12:00,2.0,-2.0,30.34,North,355,0.0,1.0,83,0.00,,,0.00,,2013-03-18 08:12:00,
2013-03-18 04:22:00,2.0,-2.0,30.34,North,355,0.0,0.0,83,0.00,,,0.00,,2013-03-18 08:22:00,
2013-03-18 04:32:00,2.0,-2.0,30.34,North,355,0.0,0.0,84,0.00,,,0.00,,2013-03-18 08:32:00,
2013-03-18 04:43:00,2.0,-2.0,30.34,North,355,0.0,0.0,84,0.00,,,0.00,,2013-03-18 08:43:00,
2013-03-18 04:53:00,1.0,-3.0,30.35,North,355,0.0,0.0,84,0.00,,,0.00,,2013-03-18 08:53:00,
2013-03-18 05:02:00,1.0,-3.0,30.35,North,355,0.0,0.0,84,0.00,,,0.00,,2013-03-18 09:02:00,
2013-03-18 05:12:00,1.0,-3.0,30.35,North,355,0.0,0.0,84,0.00,,,0.00,,2013-03-18 09:12:00,
2013-03-18 05:22:00,1.0,-3.0,30.35,North,355,0.0,0.0,84,0.00,,,0.00,,2013-03-18 09:22:00,
2013-03-18 05:33:00,1.0,-2.0,30.36,North,355,0.0,0.0,85,0.00,,,0.00,,2013-03-18 09:33:00,
2013-03-18 05:43:00,1.0,-2.0,30.36,North,355,0.0,0.0,85,0.00,,,0.00,,2013-03-18 09:43:00,
2013-03-18 05:53:00,0.0,-3.0,30.37,North,355,0.0,0.0,85,0.00,,,0.00,,2013-03-18 09:53:00,
2013-03-18 06:03:00,0.0,-3.0,30.37,North,355,0.0,0.0,85,0.00,,,0.00,,2013-03-18 10:03:00,
2013-03-18 06:13:00,0.0,-3.0,30.37,North,355,0.0,0.0,85,0.00,,,0.00,,2013-03-18 10:13:00,
2013-03-18 06:23:00,0.0,-3.0,30.37,North,355,0.0,0.0,85,0.00,,,0.00,,2013-03-18 10:23:00,
2013-03-18 06:33:00,0.0,-3.0,30.38,North,355,0.0,0.0,85,0.00,,,0.00,,2013-03-18 10:33:00,
2013-03-18 06:42:00,0.0,-3.0,30.38,North,355,0.0,0.0,85,0.00,,,0.00,,2013-03-18 10:42:00,
2013-03-18 06:52:00,-1.0,-4.0,30.39,North,355,0.0,0.0,85,0.00,,,0.00,,2013-03-18 10:52:00,
2013-03-18 07:03:00,-1.0,-4.0,30.39,North,355,0.0,0.0,85,0.00,,,0.00,,2013-03-18 11:03:00,
2013-03-18 07:13:00,-1.0,-4.0,30.39,North,355,0.0,0.0,85,0.00,,,0.00,,2013-03-18 11:13:00,
2013-03-18 07:22:00,-1.0,-4.0,30.39,North,355,0.0,0.0,85,0.00,,,0.00,,2013-03-18 11:22:00,
2013-03-18 07:32:00,-1.0,-4.0,30.40,North,355,0.0,0.0,85,0.00,,,0.00,,2013-03-18 11:32:00,
2013-03-18 07:42:00,-1.0,-4.0,30.40,North,355,0.0,0.0,85,0.00,,,0.00,,2013-03-18 11:42:00,
2013-03-18 07:53:00,-1.0,-4.0,30.40,North,355,0.0,0.0,85,0.00,,,0.00,,2013-03-18 11:53:00,
2013-03-18 08:03:00,-1.0,-4.0,30.40,North,355,0.0,0.0,86,0.00,,,0.00,,2013-03-18 12:03:00,
2013-03-18 08:12:00,-1.0,-4.0,30.40,North,355,0.0,0.0,86,0.00,,,0.00,,2013-03-18 12:12:00,
2013-03-18 08:22:00,0.0,-3.0,30.40,North,355,0.0,0.0,86,0.00,,,0.00,,2013-03-18 12:22:00,
2013-03-18 08:32:00,0.0,-3.0,30.40,North,355,0.0,0.0,86,0.00,,,0.00,,2013-03-18 12:32:00,
2013-03-18 08:43:00,0.0,-3.0,30.40,North,355,0.0,0.0,86,0.00,,,0.00,,2013-03-18 12:43:00,
2013-03-18 08:52:00,2.0,-1.0,30.40,North,355,0.0,0.0,88,0.00,,,0.00,,2013-03-18 12:52:00,
2013-03-18 09:02:00,5.0,2.0,30.40,North,355,0.0,1.0,89,0.00,,,0.00,,2013-03-18 13:02:00,
2013-03-18 09:12:00,5.0,2.0,30.40,North,355,0.0,1.0,89,0.00,,,0.00,,2013-03-18 13:12:00,
2013-03-18 09:22:00,7.0,4.0,30.40,North,355,0.0,0.0,89,0.00,,,0.00,,2013-03-18 13:22:00,
2013-03-18 09:33:00,11.0,8.0,30.40,North,355,0.0,0.0,89,0.00,,,0.00,,2013-03-18 13:33:00,
2013-03-18 09:42:00,11.0,8.0,30.40,North,355,0.0,0.0,89,0.00,,,0.00,,2013-03-18 13:42:00,
2013-03-18 09:52:00,15.0,10.0,30.40,SSW,207,1.0,4.0,80,0.00,,,0.00,,2013-03-18 13:52:00,
2013-03-18 10:02:00,17.0,8.0,30.40,SW,217,2.0,6.0,67,0.00,,,0.00,,2013-03-18 14:02:00,
2013-03-18 10:12:00,17.0,8.0,30.40,SW,217,2.0,6.0,67,0.00,,,0.00,,2013-03-18 14:12:00,
2013-03-18 10:22:00,19.0,7.0,30.40,SSW,212,0.0,5.0,60,0.00,,,0.00,,2013-03-18 14:22:00,
2013-03-18 10:32:00,21.0,7.0,30.40,SW,219,1.0,4.0,54,0.00,,,0.00,,2013-03-18 14:32:00,
2013-03-18 10:42:00,21.0,7.0,30.40,SW,219,1.0,4.0,54,0.00,,,0.00,,2013-03-18 14:42:00,
2013-03-18 10:52:00,24.0,6.0,30.39,West,272,5.0,7.0,46,0.00,,,0.00,,2013-03-18 14:52:00,
2013-03-18 11:02:00,25.0,5.0,30.39,West,261,3.0,5.0,42,0.00,,,0.00,,2013-03-18 15:02:00,
2013-03-18 11:12:00,25.0,5.0,30.39,West,261,3.0,5.0,42,0.00,,,0.00,,2013-03-18 15:12:00,
2013-03-18 11:22:00,27.0,5.0,30.39,West,267,0.0,4.0,39,0.00,,,0.00,,2013-03-18 15:22:00,
2013-03-18 11:33:00,27.0,4.0,30.39,South,172,0.0,5.0,37,0.00,,,0.00,,2013-03-18 15:33:00,
2013-03-18 11:43:00,27.0,4.0,30.39,South,172,0.0,5.0,37,0.00,,,0.00,,2013-03-18 15:43:00,
2013-03-18 11:52:00,29.0,4.0,30.38,SSE,159,3.0,7.0,34,0.00,,,0.00,,2013-03-18 15:52:00,
2013-03-18 12:03:00,28.0,4.0,30.37,SW,226,5.0,9.0,35,0.00,,,0.00,,2013-03-18 16:03:00,
2013-03-18 12:12:00,28.0,4.0,30.37,SW,226,5.0,9.0,35,0.00,,,0.00,,2013-03-18 16:12:00,
2013-03-18 12:23:00,28.0,5.0,30.37,WNW,282,4.0,7.0,36,0.00,,,0.00,,2013-03-18 16:23:00,
2013-03-18 12:33:00,30.0,5.0,30.36,South,173,4.0,7.0,34,0.00,,,0.00,,2013-03-18 16:33:00,
2013-03-18 12:42:00,30.0,5.0,30.36,South,173,4.0,7.0,34,0.00,,,0.00,,2013-03-18 16:42:00,
2013-03-18 12:52:00,30.0,4.0,30.35,West,273,1.0,6.0,32,0.00,,,0.00,,2013-03-18 16:52:00,
2013-03-18 13:03:00,32.0,6.0,30.35,West,267,1.0,7.0,32,0.00,,,0.00,,2013-03-18 17:03:00,
2013-03-18 13:12:00,32.0,6.0,30.35,West,267,1.0,7.0,32,0.00,,,0.00,,2013-03-18 17:12:00,
2013-03-18 13:22:00,33.0,6.0,30.34,WSW,248,4.0,7.0,31,0.00,,,0.00,,2013-03-18 17:22:00,
2013-03-18 13:32:00,33.0,4.0,30.33,SSW,209,1.0,5.0,29,0.00,,,0.00,,2013-03-18 17:32:00,
2013-03-18 13:42:00,33.0,4.0,30.33,SSW,209,1.0,5.0,29,0.00,,,0.00,,2013-03-18 17:42:00,
2013-03-18 13:52:00,33.0,5.0,30.32,NW,307,6.0,9.0,30,0.00,,,0.00,,2013-03-18 17:52:00,
2013-03-18 14:02:00,34.0,7.0,30.32,SE,128,1.0,6.0,31,0.00,,,0.00,,2013-03-18 18:02:00,
2013-03-18 14:12:00,34.0,7.0,30.32,SE,128,1.0,6.0,31,0.00,,,0.00,,2013-03-18 18:12:00,
2013-03-18 14:22:00,34.0,6.0,30.30,WNW,300,1.0,5.0,30,0.00,,,0.00,,2013-03-18 18:22:00,
2013-03-18 14:32:00,34.0,6.0,30.29,SSE,153,2.0,6.0,30,0.00,,,0.00,,2013-03-18 18:32:00,
2013-03-18 14:42:00,34.0,6.0,30.29,SSE,153,2.0,6.0,30,0.00,,,0.00,,2013-03-18 18:42:00,
2013-03-18 14:52:00,33.0,6.0,30.28,NNW,341,0.0,8.0,32,0.00,,,0.00,,2013-03-18 18:52:00,
2013-03-18 15:02:00,34.0,7.0,30.28,SW,232,1.0,6.0,31,0.00,,,0.00,,2013-03-18 19:02:00,
2013-03-18 15:12:00,34.0,7.0,30.28,SW,232,1.0,6.0,31,0.00,,,0.00,,2013-03-18 19:12:00,
2013-03-18 15:22:00,33.0,5.0,30.27,WSW,245,3.0,6.0,30,0.00,,,0.00,,2013-03-18 19:22:00,
2013-03-18 15:33:00,34.0,7.0,30.26,SSW,194,1.0,8.0,31,0.00,,,0.00,,2013-03-18 19:33:00,
2013-03-18 15:42:00,34.0,7.0,30.26,SSW,194,1.0,8.0,31,0.00,,,0.00,,2013-03-18 19:42:00,
2013-03-18 15:52:00,35.0,6.0,30.25,North,5,1.0,5.0,29,0.00,,,0.00,,2013-03-18 19:52:00,
2013-03-18 16:02:00,36.0,8.0,30.25,NNW,343,0.0,4.0,30,0.00,,,0.00,,2013-03-18 20:02:00,
2013-03-18 16:12:00,36.0,8.0,30.25,NNW,343,0.0,4.0,30,0.00,,,0.00,,2013-03-18 20:12:00,
2013-03-18 16:23:00,36.0,8.0,30.24,North,9,1.0,1.0,30,0.00,,,0.00,,2013-03-18 20:23:00,
2013-03-18 16:33:00,35.0,7.0,30.24,WNW,298,1.0,7.0,30,0.00,,,0.00,,2013-03-18 20:33:00,
2013-03-18 16:42:00,35.0,7.0,30.24,WNW,298,1.0,7.0,30,0.00,,,0.00,,2013-03-18 20:42:00,
2013-03-18 16:52:00,35.0,7.0,30.23,North,5,4.0,6.0,30,0.00,,,0.00,,2013-03-18 20:52:00,
2013-03-18 17:02:00,34.0,6.0,30.23,North,349,3.0,7.0,30,0.00,,,0.00,,2013-03-18 21:02:00,
2013-03-18 17:12:00,34.0,6.0,30.23,North,349,3.0,7.0,30,0.00,,,0.00,,2013-03-18 21:12:00,
2013-03-18 17:22:00,34.0,7.0,30.22,North,349,0.0,4.0,32,0.00,,,0.00,,2013-03-18 21:22:00,
2013-03-18 17:32:00,34.0,7.0,30.21,SW,215,1.0,5.0,31,0.00,,,0.00,,2013-03-18 21:32:00,
2013-03-18 17:43:00,34.0,7.0,30.21,SW,215,1.0,5.0,31,0.00,,,0.00,,2013-03-18 21:43:00,
2013-03-18 17:53:00,33.0,6.0,30.21,South,178,2.0,5.0,31,0.00,,,0.00,,2013-03-18 21:53:00,
2013-03-18 18:03:00,33.0,6.0,30.19,SSE,160,0.0,2.0,32,0.00,,,0.00,,2013-03-18 22:03:00,
2013-03-18 18:13:00,33.0,6.0,30.19,SSE,160,0.0,2.0,32,0.00,,,0.00,,2013-03-18 22:13:00,
2013-03-18 18:23:00,33.0,3.0,30.19,SSE,167,0.0,5.0,28,0.00,,,0.00,,2013-03-18 22:23:00,
2013-03-18 18:33:00,33.0,4.0,30.18,NE,44,0.0,5.0,29,0.00,,,0.00,,2013-03-18 22:33:00,
2013-03-18 18:42:00,33.0,4.0,30.18,NE,44,0.0,5.0,29,0.00,,,0.00,,2013-03-18 22:42:00,
2013-03-18 18:53:00,32.0,9.0,30.19,East,100,0.0,3.0,37,0.00,,,0.00,,2013-03-18 22:53:00,
2013-03-18 19:03:00,31.0,16.0,30.18,East,100,0.0,1.0,53,0.00,,,0.00,,2013-03-18 23:03:00,
2013-03-18 19:12:00,31.0,16.0,30.18,East,100,0.0,1.0,53,0.00,,,0.00,,2013-03-18 23:12:00,
2013-03-18 19:23:00,30.0,17.0,30.18,East,100,0.0,0.0,57,0.00,,,0.00,,2013-03-18 23:23:00,
2013-03-18 19:33:00,29.0,16.0,30.17,East,100,0.0,1.0,58,0.00,,,0.00,,2013-03-18 23:33:00,
2013-03-18 19:42:00,29.0,16.0,30.17,East,100,0.0,1.0,58,0.00,,,0.00,,2013-03-18 23:42:00,
2013-03-18 19:52:00,28.0,18.0,30.18,East,100,1.0,2.0,65,0.00,,,0.00,,2013-03-18 23:52:00,
2013-03-18 20:02:00,27.0,18.0,30.18,East,99,0.0,1.0,67,0.00,,,0.00,,2013-03-19 00:02:00,
2013-03-18 20:12:00,27.0,18.0,30.18,East,99,0.0,1.0,67,0.00,,,0.00,,2013-03-19 00:12:00,
2013-03-18 20:23:00,27.0,19.0,30.17,East,100,1.0,2.0,70,0.00,,,0.00,,2013-03-19 00:23:00,
2013-03-18 20:32:00,26.0,18.0,30.17,East,100,1.0,2.0,71,0.00,,,0.00,,2013-03-19 00:32:00,
2013-03-18 20:42:00,26.0,18.0,30.17,East,100,1.0,2.0,71,0.00,,,0.00,,2013-03-19 00:42:00,
2013-03-18 20:52:00,26.0,18.0,30.17,East,100,0.0,1.0,71,0.00,,,0.00,,2013-03-19 00:52:00,
2013-03-18 21:02:00,26.0,18.0,30.16,East,100,0.0,1.0,70,0.00,,,0.00,,2013-03-19 01:02:00,
2013-03-18 21:12:00,26.0,18.0,30.16,East,100,0.0,1.0,70,0.00,,,0.00,,2013-03-19 01:12:00,
2013-03-18 21:22:00,26.0,17.0,30.16,East,99,0.0,2.0,68,0.00,,,0.00,,2013-03-19 01:22:00,
2013-03-18 21:32:00,26.0,17.0,30.16,East,99,0.0,2.0,67,0.00,,,0.00,,2013-03-19 01:32:00,
2013-03-18 21:43:00,26.0,17.0,30.16,East,99,0.0,2.0,67,0.00,,,0.00,,2013-03-19 01:43:00,
2013-03-18 21:52:00,26.0,18.0,30.16,East,99,1.0,2.0,70,0.00,,,0.00,,2013-03-19 01:52:00,
2013-03-18 22:03:00,26.0,18.0,30.16,East,99,1.0,3.0,72,0.00,,,0.00,,2013-03-19 02:03:00,
2013-03-18 22:13:00,26.0,18.0,30.16,East,99,1.0,3.0,72,0.00,,,0.00,,2013-03-19 02:13:00,
2013-03-18 22:22:00,26.0,17.0,30.16,East,100,0.0,0.0,68,0.00,,,0.00,,2013-03-19 02:22:00,
2013-03-18 22:33:00,26.0,16.0,30.15,East,100,0.0,0.0,66,0.00,,,0.00,,2013-03-19 02:33:00,
2013-03-18 22:42:00,26.0,16.0,30.15,East,100,0.0,0.0,66,0.00,,,0.00,,2013-03-19 02:42:00,
2013-03-18 22:53:00,26.0,17.0,30.14,East,100,0.0,2.0,69,0.00,,,0.00,,2013-03-19 02:53:00,
2013-03-18 23:02:00,26.0,16.0,30.14,East,100,0.0,0.0,66,0.00,,,0.00,,2013-03-19 03:02:00,
2013-03-18 23:12:00,26.0,16.0,30.14,East,100,0.0,0.0,66,0.00,,,0.00,,2013-03-19 03:12:00,
2013-03-18 23:22:00,27.0,19.0,30.13,East,100,0.0,0.0,70,0.00,,,0.00,,2013-03-19 03:22:00,
2013-03-18 23:33:00,28.0,12.0,30.12,South,184,3.0,9.0,50,0.00,,,0.00,,2013-03-19 03:33:00,
2013-03-18 23:43:00,28.0,12.0,30.12,South,184,3.0,9.0,50,0.00,,,0.00,,2013-03-19 03:43:00,
2013-03-18 23:54:00,30.0,13.0,30.12,South,173,8.0,15.0,48,0.00,,,0.00,,2013-03-19 03:54:00,